sensor_id;sensor_type;location;lat;lon;timestamp;pressure;altitude;pressure_sealevel;temperature;humidity
43757;BME280;73222;41.866;12.462;2024-02-15T00:01:21;101874.31;;;9.05;100.00
43757;BME280;73222;41.866;12.462;2024-02-15T00:03:46;101868.84;;;8.96;100.00
43757;BME280;73222;41.866;12.462;2024-02-15T00:06:12;101866.22;;;8.94;100.00
43757;BME280;73222;41.866;12.462;2024-02-15T00:08:37;101870.56;;;8.95;100.00
43757;BME280;73222;41.866;12.462;2024-02-15T00:11:03;101873.06;;;8.93;100.00
43757;BME280;73222;41.866;12.462;2024-02-15T00:13:28;101878.78;;;8.83;100.00
43757;BME280;73222;41.866;12.462;2024-02-15T00:15:55;101875.28;;;8.81;100.00
43757;BME280;73222;41.866;12.462;2024-02-15T00:18:20;101876.84;;;8.76;100.00
43757;BME280;73222;41.866;12.462;2024-02-15T00:20:46;101876.75;;;8.73;100.00
43757;BME280;73222;41.866;12.462;2024-02-15T00:23:11;101882.78;;;8.73;100.00
43757;BME280;73222;41.866;12.462;2024-02-15T00:25:37;101879.88;;;8.62;100.00
43757;BME280;73222;41.866;12.462;2024-02-15T00:28:02;101877.09;;;8.56;100.00
43757;BME280;73222;41.866;12.462;2024-02-15T00:30:28;101874.28;;;8.50;100.00
43757;BME280;73222;41.866;12.462;2024-02-15T00:32:54;101869.78;;;8.44;100.00
43757;BME280;73222;41.866;12.462;2024-02-15T00:35:19;101870.66;;;8.45;100.00
43757;BME280;73222;41.866;12.462;2024-02-15T00:37:45;101872.22;;;8.39;100.00
43757;BME280;73222;41.866;12.462;2024-02-15T00:40:10;101865.19;;;8.35;100.00
43757;BME280;73222;41.866;12.462;2024-02-15T00:42:36;101864.97;;;8.29;100.00
43757;BME280;73222;41.866;12.462;2024-02-15T00:45:03;101868.59;;;8.34;100.00
43757;BME280;73222;41.866;12.462;2024-02-15T00:47:28;101873.56;;;8.28;100.00
43757;BME280;73222;41.866;12.462;2024-02-15T00:49:54;101873.38;;;8.22;100.00
43757;BME280;73222;41.866;12.462;2024-02-15T00:52:19;101870.63;;;8.17;100.00
43757;BME280;73222;41.866;12.462;2024-02-15T00:54:45;101874.69;;;8.10;100.00
43757;BME280;73222;41.866;12.462;2024-02-15T00:57:11;101868.81;;;8.15;100.00
43757;BME280;73222;41.866;12.462;2024-02-15T00:59:36;101870.19;;;8.05;100.00
43757;BME280;73222;41.866;12.462;2024-02-15T01:02:02;101869.44;;;8.07;100.00
43757;BME280;73222;41.866;12.462;2024-02-15T01:04:28;101872.56;;;7.98;100.00
43757;BME280;73222;41.866;12.462;2024-02-15T01:06:54;101869.75;;;7.92;100.00
43757;BME280;73222;41.866;12.462;2024-02-15T01:09:21;101868.78;;;7.89;100.00
43757;BME280;73222;41.866;12.462;2024-02-15T01:11:46;101870.66;;;7.93;100.00
43757;BME280;73222;41.866;12.462;2024-02-15T01:14:12;101875.38;;;7.80;100.00
43757;BME280;73222;41.866;12.462;2024-02-15T01:16:38;101871.00;;;7.78;100.00
43757;BME280;73222;41.866;12.462;2024-02-15T01:19:03;101864.94;;;7.77;100.00
43757;BME280;73222;41.866;12.462;2024-02-15T01:21:30;101861.31;;;7.72;100.00
43757;BME280;73222;41.866;12.462;2024-02-15T01:23:55;101863.88;;;7.70;100.00
43757;BME280;73222;41.866;12.462;2024-02-15T01:26:21;101854.16;;;7.63;100.00
43757;BME280;73222;41.866;12.462;2024-02-15T01:28:46;101862.13;;;7.69;100.00
43757;BME280;73222;41.866;12.462;2024-02-15T01:31:11;101856.66;;;7.62;100.00
43757;BME280;73222;41.866;12.462;2024-02-15T01:33:38;101852.44;;;7.64;100.00
43757;BME280;73222;41.866;12.462;2024-02-15T01:36:04;101852.25;;;7.58;100.00
43757;BME280;73222;41.866;12.462;2024-02-15T01:38:29;101860.56;;;7.50;100.00
43757;BME280;73222;41.866;12.462;2024-02-15T01:40:55;101852.78;;;7.49;100.00
43757;BME280;73222;41.866;12.462;2024-02-15T01:43:20;101854.34;;;7.45;100.00
43757;BME280;73222;41.866;12.462;2024-02-15T01:45:46;101848.16;;;7.40;100.00
43757;BME280;73222;41.866;12.462;2024-02-15T01:48:14;101842.19;;;7.41;100.00
43757;BME280;73222;41.866;12.462;2024-02-15T01:50:41;101837.84;;;7.40;100.00
43757;BME280;73222;41.866;12.462;2024-02-15T01:53:09;101842.91;;;7.37;100.00
43757;BME280;73222;41.866;12.462;2024-02-15T01:55:35;101839.50;;;7.38;100.00
43757;BME280;73222;41.866;12.462;2024-02-15T01:58:01;101836.81;;;7.35;100.00
43757;BME280;73222;41.866;12.462;2024-02-15T02:00:27;101839.25;;;7.32;100.00
43757;BME280;73222;41.866;12.462;2024-02-15T02:02:53;101839.81;;;7.23;100.00
43757;BME280;73222;41.866;12.462;2024-02-15T02:05:21;101843.97;;;7.19;100.00
43757;BME280;73222;41.866;12.462;2024-02-15T02:07:46;101847.47;;;7.21;100.00
43757;BME280;73222;41.866;12.462;2024-02-15T02:10:12;101841.97;;;7.12;100.00
43757;BME280;73222;41.866;12.462;2024-02-15T02:12:38;101843.97;;;7.19;100.00
43757;BME280;73222;41.866;12.462;2024-02-15T02:15:06;101841.88;;;7.09;100.00
43757;BME280;73222;41.866;12.462;2024-02-15T02:17:32;101847.97;;;7.11;100.00
43757;BME280;73222;41.866;12.462;2024-02-15T02:19:59;101848.88;;;7.13;100.00
43757;BME280;73222;41.866;12.462;2024-02-15T02:22:24;101842.81;;;7.11;100.00
43757;BME280;73222;41.866;12.462;2024-02-15T02:25:01;101833.38;;;7.11;100.00
43757;BME280;73222;41.866;12.462;2024-02-15T02:27:28;101827.94;;;7.26;100.00
43757;BME280;73222;41.866;12.462;2024-02-15T02:29:53;101828.19;;;7.10;100.00
43757;BME280;73222;41.866;12.462;2024-02-15T02:32:19;101825.53;;;7.08;100.00
43757;BME280;73222;41.866;12.462;2024-02-15T02:34:45;101828.81;;;7.04;100.00
43757;BME280;73222;41.866;12.462;2024-02-15T02:37:10;101829.94;;;7.11;100.00
43757;BME280;73222;41.866;12.462;2024-02-15T02:39:37;101840.00;;;7.05;100.00
43757;BME280;73222;41.866;12.462;2024-02-15T02:42:02;101836.50;;;7.03;100.00
43757;BME280;73222;41.866;12.462;2024-02-15T02:44:28;101834.59;;;6.98;100.00
43757;BME280;73222;41.866;12.462;2024-02-15T02:46:53;101839.50;;;6.92;100.00
43757;BME280;73222;41.866;12.462;2024-02-15T02:49:18;101829.34;;;6.95;100.00
43757;BME280;73222;41.866;12.462;2024-02-15T02:51:44;101840.91;;;6.84;100.00
43757;BME280;73222;41.866;12.462;2024-02-15T02:54:10;101843.38;;;6.81;100.00
43757;BME280;73222;41.866;12.462;2024-02-15T02:56:36;101847.69;;;6.82;100.00
43757;BME280;73222;41.866;12.462;2024-02-15T02:59:01;101845.69;;;6.74;100.00
43757;BME280;73222;41.866;12.462;2024-02-15T03:01:27;101849.22;;;6.77;100.00
43757;BME280;73222;41.866;12.462;2024-02-15T03:03:53;101855.00;;;6.71;100.00
43757;BME280;73222;41.866;12.462;2024-02-15T03:06:21;101847.22;;;6.69;100.00
43757;BME280;73222;41.866;12.462;2024-02-15T03:08:47;101851.19;;;6.61;100.00
43757;BME280;73222;41.866;12.462;2024-02-15T03:11:12;101840.00;;;6.60;100.00
43757;BME280;73222;41.866;12.462;2024-02-15T03:13:39;101839.31;;;6.65;100.00
43757;BME280;73222;41.866;12.462;2024-02-15T03:16:04;101840.66;;;6.55;100.00
43757;BME280;73222;41.866;12.462;2024-02-15T03:18:30;101838.06;;;6.55;100.00
43757;BME280;73222;41.866;12.462;2024-02-15T03:20:57;101839.81;;;6.56;100.00
43757;BME280;73222;41.866;12.462;2024-02-15T03:23:23;101838.06;;;6.55;100.00
43757;BME280;73222;41.866;12.462;2024-02-15T03:25:48;101838.06;;;6.55;100.00
43757;BME280;73222;41.866;12.462;2024-02-15T03:28:14;101844.03;;;6.54;100.00
43757;BME280;73222;41.866;12.462;2024-02-15T03:30:41;101842.72;;;6.42;100.00
43757;BME280;73222;41.866;12.462;2024-02-15T03:33:08;101842.53;;;6.38;100.00
43757;BME280;73222;41.866;12.462;2024-02-15T03:35:34;101840.84;;;6.38;100.00
43757;BME280;73222;41.866;12.462;2024-02-15T03:38:00;101844.91;;;6.33;100.00
43757;BME280;73222;41.866;12.462;2024-02-15T03:40:26;101843.84;;;6.28;100.00
43757;BME280;73222;41.866;12.462;2024-02-15T03:42:53;101850.81;;;6.30;100.00
43757;BME280;73222;41.866;12.462;2024-02-15T03:45:18;101844.53;;;6.24;100.00
43757;BME280;73222;41.866;12.462;2024-02-15T03:47:44;101847.94;;;6.23;100.00
43757;BME280;73222;41.866;12.462;2024-02-15T03:50:09;101844.91;;;6.33;100.00
43757;BME280;73222;41.866;12.462;2024-02-15T03:52:35;101836.25;;;6.31;100.00
43757;BME280;73222;41.866;12.462;2024-02-15T03:55:01;101840.59;;;6.32;100.00
43757;BME280;73222;41.866;12.462;2024-02-15T03:57:27;101842.16;;;6.28;100.00
43757;BME280;73222;41.866;12.462;2024-02-15T03:59:53;101836.25;;;6.31;100.00
43757;BME280;73222;41.866;12.462;2024-02-15T04:02:20;101843.84;;;6.28;100.00
43757;BME280;73222;41.866;12.462;2024-02-15T04:04:46;101844.72;;;6.28;100.00
43757;BME280;73222;41.866;12.462;2024-02-15T04:07:14;101845.63;;;6.29;100.00
43757;BME280;73222;41.866;12.462;2024-02-15T04:09:41;101847.94;;;6.23;100.00
43757;BME280;73222;41.866;12.462;2024-02-15T04:12:07;101846.22;;;6.23;100.00
43757;BME280;73222;41.866;12.462;2024-02-15T04:14:33;101853.81;;;6.20;100.00
43757;BME280;73222;41.866;12.462;2024-02-15T04:16:59;101846.56;;;6.11;100.00
43757;BME280;73222;41.866;12.462;2024-02-15T04:19:25;101853.34;;;6.09;100.00
43757;BME280;73222;41.866;12.462;2024-02-15T04:21:50;101851.59;;;6.08;100.00
43757;BME280;73222;41.866;12.462;2024-02-15T04:24:16;101849.72;;;6.04;100.00
43757;BME280;73222;41.866;12.462;2024-02-15T04:26:42;101849.72;;;6.04;100.00
43757;BME280;73222;41.866;12.462;2024-02-15T04:29:07;101847.88;;;6.01;100.00
43757;BME280;73222;41.866;12.462;2024-02-15T04:31:34;101858.09;;;6.00;100.00
43757;BME280;73222;41.866;12.462;2024-02-15T04:34:02;101851.84;;;5.95;100.00
43757;BME280;73222;41.866;12.462;2024-02-15T04:36:28;101861.06;;;5.89;100.00
43757;BME280;73222;41.866;12.462;2024-02-15T04:38:59;101854.03;;;5.85;100.00
43757;BME280;73222;41.866;12.462;2024-02-15T04:41:24;101860.59;;;5.78;100.00
43757;BME280;73222;41.866;12.462;2024-02-15T04:43:53;101861.16;;;5.71;100.00
43757;BME280;73222;41.866;12.462;2024-02-15T04:46:18;101867.56;;;5.81;100.00
43757;BME280;73222;41.866;12.462;2024-02-15T04:48:50;101865.81;;;5.80;100.00
43757;BME280;73222;41.866;12.462;2024-02-15T04:51:16;101866.75;;;5.82;100.00
43757;BME280;73222;41.866;12.462;2024-02-15T04:53:45;101870.69;;;5.74;100.00
43757;BME280;73222;41.866;12.462;2024-02-15T04:56:12;101874.19;;;5.76;100.00
43757;BME280;73222;41.866;12.462;2024-02-15T04:58:41;101875.00;;;5.75;100.00
43757;BME280;73222;41.866;12.462;2024-02-15T05:01:14;101869.25;;;5.81;100.00
43757;BME280;73222;41.866;12.462;2024-02-15T05:03:40;101869.66;;;5.70;100.00
43757;BME280;73222;41.866;12.462;2024-02-15T05:06:05;101870.28;;;5.64;100.00
43757;BME280;73222;41.866;12.462;2024-02-15T05:08:34;101875.28;;;5.61;100.00
43757;BME280;73222;41.866;12.462;2024-02-15T05:11:02;101870.13;;;5.61;100.00
43757;BME280;73222;41.866;12.462;2024-02-15T05:13:29;101876.28;;;5.65;100.00
43757;BME280;73222;41.866;12.462;2024-02-15T05:15:55;101869.59;;;5.69;100.00
43757;BME280;73222;41.866;12.462;2024-02-15T05:18:20;101868.66;;;5.67;100.00
43757;BME280;73222;41.866;12.462;2024-02-15T05:20:46;101874.66;;;5.67;100.00
43757;BME280;73222;41.866;12.462;2024-02-15T05:23:11;101878.94;;;5.67;100.00
43757;BME280;73222;41.866;12.462;2024-02-15T05:25:37;101879.75;;;5.66;100.00
43757;BME280;73222;41.866;12.462;2024-02-15T05:28:03;101873.06;;;5.69;100.00
43757;BME280;73222;41.866;12.462;2024-02-15T05:30:31;101872.69;;;5.61;100.00
43757;BME280;73222;41.866;12.462;2024-02-15T05:32:57;101871.47;;;5.53;100.00
43757;BME280;73222;41.866;12.462;2024-02-15T05:35:23;101875.00;;;5.55;100.00
43757;BME280;73222;41.866;12.462;2024-02-15T05:37:49;101873.09;;;5.51;100.00
43757;BME280;73222;41.866;12.462;2024-02-15T05:40:18;101879.59;;;5.43;100.00
43757;BME280;73222;41.866;12.462;2024-02-15T05:42:45;101885.75;;;5.46;100.00
43757;BME280;73222;41.866;12.462;2024-02-15T05:47:49;101882.38;;;5.47;100.00
43757;BME280;73222;41.866;12.462;2024-02-15T05:50:14;101888.84;;;5.39;100.00
43757;BME280;73222;41.866;12.462;2024-02-15T05:52:40;101887.22;;;5.41;100.00
43757;BME280;73222;41.866;12.462;2024-02-15T05:55:06;101889.84;;;5.43;100.00
43757;BME280;73222;41.866;12.462;2024-02-15T05:57:31;101893.47;;;5.28;100.00
43757;BME280;73222;41.866;12.462;2024-02-15T05:59:58;101902.94;;;5.29;100.00
43757;BME280;73222;41.866;12.462;2024-02-15T06:02:27;101914.03;;;5.28;100.00
43757;BME280;73222;41.866;12.462;2024-02-15T06:04:52;101914.09;;;5.30;100.00
43757;BME280;73222;41.866;12.462;2024-02-15T06:07:19;101913.94;;;5.27;100.00
43757;BME280;73222;41.866;12.462;2024-02-15T06:09:46;101924.44;;;5.31;100.00
43757;BME280;73222;41.866;12.462;2024-02-15T06:12:11;101925.53;;;5.36;100.00
43757;BME280;73222;41.866;12.462;2024-02-15T06:14:36;101922.00;;;5.34;100.00
43757;BME280;73222;41.866;12.462;2024-02-15T06:17:02;101922.31;;;5.41;100.00
43757;BME280;73222;41.866;12.462;2024-02-15T06:19:27;101925.81;;;5.43;100.00
43757;BME280;73222;41.866;12.462;2024-02-15T06:21:53;101925.22;;;5.48;100.00
43757;BME280;73222;41.866;12.462;2024-02-15T06:24:18;101928.28;;;5.59;100.00
43757;BME280;73222;41.866;12.462;2024-02-15T06:26:44;101924.50;;;5.71;100.00
43757;BME280;73222;41.866;12.462;2024-02-15T06:29:10;101918.00;;;5.79;100.00
43757;BME280;73222;41.866;12.462;2024-02-15T06:31:54;101923.31;;;6.02;100.00
43757;BME280;73222;41.866;12.462;2024-02-15T06:34:38;101910.94;;;7.19;100.00
43757;BME280;73222;41.866;12.462;2024-02-15T06:37:35;101897.28;;;8.18;100.00
43757;BME280;73222;41.866;12.462;2024-02-15T06:40:20;101895.31;;;9.17;100.00
43757;BME280;73222;41.866;12.462;2024-02-15T06:42:45;101892.84;;;10.14;100.00
43757;BME280;73222;41.866;12.462;2024-02-15T06:45:11;101893.97;;;10.57;100.00
43757;BME280;73222;41.866;12.462;2024-02-15T06:47:41;101893.19;;;10.60;100.00
43757;BME280;73222;41.866;12.462;2024-02-15T06:50:07;101890.38;;;10.89;100.00
43757;BME280;73222;41.866;12.462;2024-02-15T06:52:34;101893.56;;;11.56;100.00
43757;BME280;73222;41.866;12.462;2024-02-15T06:55:00;101885.66;;;12.43;100.00
43757;BME280;73222;41.866;12.462;2024-02-15T06:57:25;101886.06;;;12.70;100.00
43757;BME280;73222;41.866;12.462;2024-02-15T06:59:51;101892.81;;;13.86;100.00
43757;BME280;73222;41.866;12.462;2024-02-15T07:02:16;101894.88;;;14.22;100.00
43757;BME280;73222;41.866;12.462;2024-02-15T07:04:44;101901.22;;;14.52;95.62
43757;BME280;73222;41.866;12.462;2024-02-15T07:07:10;101896.06;;;14.58;97.47
43757;BME280;73222;41.866;12.462;2024-02-15T07:09:37;101903.81;;;14.52;96.17
43757;BME280;73222;41.866;12.462;2024-02-15T07:12:03;101891.47;;;14.32;92.12
43757;BME280;73222;41.866;12.462;2024-02-15T07:14:29;101901.63;;;15.11;90.95
43757;BME280;73222;41.866;12.462;2024-02-15T07:16:55;101900.94;;;15.52;82.03
43757;BME280;73222;41.866;12.462;2024-02-15T07:19:23;101897.34;;;15.22;82.22
43757;BME280;73222;41.866;12.462;2024-02-15T07:21:50;101900.84;;;15.28;82.50
43757;BME280;73222;41.866;12.462;2024-02-15T07:24:16;101902.44;;;15.01;81.52
43757;BME280;73222;41.866;12.462;2024-02-15T07:26:41;101899.97;;;15.27;81.20
43757;BME280;73222;41.866;12.462;2024-02-15T07:29:07;101907.78;;;15.29;80.16
43757;BME280;73222;41.866;12.462;2024-02-15T07:31:33;101910.72;;;16.31;72.66
43757;BME280;73222;41.866;12.462;2024-02-15T07:33:59;101908.09;;;16.62;66.37
43757;BME280;73222;41.866;12.462;2024-02-15T07:36:24;101908.03;;;17.19;65.89
43757;BME280;73222;41.866;12.462;2024-02-15T07:38:51;101907.19;;;16.99;61.74
43757;BME280;73222;41.866;12.462;2024-02-15T07:41:18;101912.13;;;17.79;55.37
43757;BME280;73222;41.866;12.462;2024-02-15T07:43:51;101906.13;;;17.58;54.47
43757;BME280;73222;41.866;12.462;2024-02-15T07:46:19;101910.88;;;18.39;51.71
43757;BME280;73222;41.866;12.462;2024-02-15T07:48:45;101916.16;;;18.33;52.84
43757;BME280;73222;41.866;12.462;2024-02-15T07:51:15;101914.66;;;19.04;48.07
43757;BME280;73222;41.866;12.462;2024-02-15T07:53:41;101911.66;;;18.53;45.76
43757;BME280;73222;41.866;12.462;2024-02-15T07:56:09;101908.97;;;18.57;48.92
43757;BME280;73222;41.866;12.462;2024-02-15T07:58:38;101916.47;;;19.71;44.13
43757;BME280;73222;41.866;12.462;2024-02-15T08:01:04;101912.19;;;18.87;44.68
43757;BME280;73222;41.866;12.462;2024-02-15T08:03:30;101904.78;;;19.94;43.85
43757;BME280;73222;41.866;12.462;2024-02-15T08:05:56;101902.38;;;19.78;42.89
43757;BME280;73222;41.866;12.462;2024-02-15T08:08:21;101902.34;;;20.38;41.56
43757;BME280;73222;41.866;12.462;2024-02-15T08:10:47;101904.56;;;21.11;39.78
43757;BME280;73222;41.866;12.462;2024-02-15T08:13:14;101907.88;;;21.21;39.97
43757;BME280;73222;41.866;12.462;2024-02-15T08:15:40;101912.56;;;21.07;39.40
43757;BME280;73222;41.866;12.462;2024-02-15T08:18:05;101909.63;;;21.21;38.57
43757;BME280;73222;41.866;12.462;2024-02-15T08:20:34;101918.22;;;21.73;37.39
43757;BME280;73222;41.866;12.462;2024-02-15T08:23:00;101918.81;;;22.24;35.55
43757;BME280;73222;41.866;12.462;2024-02-15T08:25:25;101911.81;;;22.23;34.88
43757;BME280;73222;41.866;12.462;2024-02-15T08:27:50;101915.31;;;22.93;33.63
43757;BME280;73222;41.866;12.462;2024-02-15T08:30:16;101915.28;;;22.95;33.54
43757;BME280;73222;41.866;12.462;2024-02-15T08:32:42;101913.63;;;22.90;33.21
43757;BME280;73222;41.866;12.462;2024-02-15T08:35:09;101918.00;;;22.90;33.21
43757;BME280;73222;41.866;12.462;2024-02-15T08:37:35;101912.38;;;22.36;33.91
43757;BME280;73222;41.866;12.462;2024-02-15T08:40:05;101915.16;;;23.31;33.26
43757;BME280;73222;41.866;12.462;2024-02-15T08:42:43;101911.50;;;23.65;32.56
43757;BME280;73222;41.866;12.462;2024-02-15T08:45:09;101915.59;;;24.31;31.24
43757;BME280;73222;41.866;12.462;2024-02-15T08:47:39;101917.84;;;24.69;31.23
43757;BME280;73222;41.866;12.462;2024-02-15T08:50:06;101918.03;;;24.90;29.71
43757;BME280;73222;41.866;12.462;2024-02-15T08:52:31;101921.22;;;24.74;29.70
43757;BME280;73222;41.866;12.462;2024-02-15T08:54:57;101915.06;;;25.23;28.65
43757;BME280;73222;41.866;12.462;2024-02-15T08:57:24;101918.88;;;24.65;29.06
43757;BME280;73222;41.866;12.462;2024-02-15T08:59:52;101918.63;;;25.70;28.02
43757;BME280;73222;41.866;12.462;2024-02-15T09:02:20;101927.38;;;25.48;27.88
43757;BME280;73222;41.866;12.462;2024-02-15T09:04:46;101920.00;;;26.25;27.33
43757;BME280;73222;41.866;12.462;2024-02-15T09:07:11;101924.38;;;26.26;26.52
43757;BME280;73222;41.866;12.462;2024-02-15T09:09:37;101921.34;;;26.13;27.61
43757;BME280;73222;41.866;12.462;2024-02-15T09:12:03;101918.56;;;25.93;26.93
43757;BME280;73222;41.866;12.462;2024-02-15T09:14:32;101927.13;;;26.23;26.88
43757;BME280;73222;41.866;12.462;2024-02-15T09:16:59;101922.91;;;26.39;27.21
43757;BME280;73222;41.866;12.462;2024-02-15T09:19:24;101918.78;;;26.94;26.25
43757;BME280;73222;41.866;12.462;2024-02-15T09:21:50;101920.25;;;26.60;26.66
43757;BME280;73222;41.866;12.462;2024-02-15T09:24:15;101918.66;;;26.56;26.12
43757;BME280;73222;41.866;12.462;2024-02-15T09:26:42;101915.09;;;27.56;25.59
43757;BME280;73222;41.866;12.462;2024-02-15T09:29:08;101923.09;;;27.93;24.66
43757;BME280;73222;41.866;12.462;2024-02-15T09:31:33;101922.88;;;27.61;25.13
43757;BME280;73222;41.866;12.462;2024-02-15T09:34:01;101925.28;;;27.08;24.91
43757;BME280;73222;41.866;12.462;2024-02-15T09:36:26;101924.72;;;27.39;24.46
43757;BME280;73222;41.866;12.462;2024-02-15T09:38:53;101922.41;;;28.44;23.74
43757;BME280;73222;41.866;12.462;2024-02-15T09:41:19;101924.06;;;29.47;22.29
43757;BME280;73222;41.866;12.462;2024-02-15T09:43:44;101928.59;;;28.96;23.17
43757;BME280;73222;41.866;12.462;2024-02-15T09:46:10;101918.34;;;28.70;23.34
43757;BME280;73222;41.866;12.462;2024-02-15T09:48:36;101919.25;;;28.53;23.09
43757;BME280;73222;41.866;12.462;2024-02-15T09:51:03;101924.34;;;29.25;22.75
43757;BME280;73222;41.866;12.462;2024-02-15T09:53:29;101917.69;;;28.66;23.12
43757;BME280;73222;41.866;12.462;2024-02-15T09:55:55;101926.28;;;29.55;22.88
43757;BME280;73222;41.866;12.462;2024-02-15T09:58:21;101937.13;;;31.05;20.88
43757;BME280;73222;41.866;12.462;2024-02-15T10:00:50;101922.44;;;29.11;21.98
43757;BME280;73222;41.866;12.462;2024-02-15T10:03:18;101919.72;;;29.45;22.58
43757;BME280;73222;41.866;12.462;2024-02-15T10:05:44;101915.13;;;29.48;21.96
43757;BME280;73222;41.866;12.462;2024-02-15T10:08:10;101912.94;;;29.39;21.89
43757;BME280;73222;41.866;12.462;2024-02-15T10:10:36;101909.31;;;30.50;21.60
43757;BME280;73222;41.866;12.462;2024-02-15T10:13:02;101916.13;;;31.28;20.50
43757;BME280;73222;41.866;12.462;2024-02-15T10:15:31;101909.31;;;30.19;20.92
43757;BME280;73222;41.866;12.462;2024-02-15T10:17:58;101905.66;;;30.06;20.88
43757;BME280;73222;41.866;12.462;2024-02-15T10:20:24;101898.81;;;31.19;20.54
43757;BME280;73222;41.866;12.462;2024-02-15T10:23:11;101903.78;;;31.25;20.75
43757;BME280;73222;41.866;12.462;2024-02-15T10:25:38;101906.59;;;30.80;20.20
43757;BME280;73222;41.866;12.462;2024-02-15T10:28:08;101902.41;;;31.75;19.99
43757;BME280;73222;41.866;12.462;2024-02-15T10:30:39;101904.94;;;31.91;19.45
43757;BME280;73222;41.866;12.462;2024-02-15T10:33:05;101896.31;;;31.73;19.32
43757;BME280;73222;41.866;12.462;2024-02-15T10:35:32;101900.47;;;30.93;20.22
43757;BME280;73222;41.866;12.462;2024-02-15T10:38:07;101891.00;;;31.31;19.87
43757;BME280;73222;41.866;12.462;2024-02-15T10:40:33;101892.19;;;31.39;19.58
43757;BME280;73222;41.866;12.462;2024-02-15T10:42:59;101887.63;;;31.42;19.24
43757;BME280;73222;41.866;12.462;2024-02-15T10:45:28;101873.16;;;31.72;20.01
43757;BME280;73222;41.866;12.462;2024-02-15T10:47:56;101870.81;;;31.80;19.07
43757;BME280;73222;41.866;12.462;2024-02-15T10:50:23;101868.34;;;31.36;18.63
43757;BME280;73222;41.866;12.462;2024-02-15T10:52:56;101864.38;;;31.70;18.67
43757;BME280;73222;41.866;12.462;2024-02-15T10:57:51;101843.03;;;31.96;18.52
43757;BME280;73222;41.866;12.462;2024-02-15T11:00:19;101831.56;;;31.53;19.28
43757;BME280;73222;41.866;12.462;2024-02-15T11:03:03;101830.88;;;32.69;17.85
43757;BME280;73222;41.866;12.462;2024-02-15T11:05:35;101828.63;;;32.63;18.45
43757;BME280;73222;41.866;12.462;2024-02-15T11:08:08;101833.38;;;33.10;17.93
43757;BME280;73222;41.866;12.462;2024-02-15T11:10:38;101826.59;;;32.54;17.85
43757;BME280;73222;41.866;12.462;2024-02-15T11:13:04;101819.72;;;32.24;18.19
43757;BME280;73222;41.866;12.462;2024-02-15T11:15:43;101810.53;;;32.54;17.37
43757;BME280;73222;41.866;12.462;2024-02-15T11:21:15;101800.31;;;32.33;18.38
43757;BME280;73222;41.866;12.462;2024-02-15T11:23:40;101795.94;;;32.06;17.25
43757;BME280;73222;41.866;12.462;2024-02-15T11:26:42;101796.06;;;33.42;17.15
43757;BME280;73222;41.866;12.462;2024-02-15T11:29:08;101795.00;;;34.62;16.87
43757;BME280;73222;41.866;12.462;2024-02-15T11:31:53;101785.44;;;33.65;17.56
43757;BME280;73222;41.866;12.462;2024-02-15T11:34:44;101787.56;;;34.99;16.15
43757;BME280;73222;41.866;12.462;2024-02-15T11:37:50;101788.72;;;34.16;16.63
43757;BME280;73222;41.866;12.462;2024-02-15T11:40:25;101789.78;;;33.91;16.96
43757;BME280;73222;41.866;12.462;2024-02-15T11:43:01;101786.75;;;34.41;16.83
43757;BME280;73222;41.866;12.462;2024-02-15T11:45:28;101782.31;;;33.83;16.86
43757;BME280;73222;41.866;12.462;2024-02-15T11:47:59;101778.09;;;34.26;16.16
43757;BME280;73222;41.866;12.462;2024-02-15T11:50:27;101778.09;;;34.72;16.19
43757;BME280;73222;41.866;12.462;2024-02-15T11:53:02;101771.59;;;35.30;15.38
43757;BME280;73222;41.866;12.462;2024-02-15T11:55:34;101762.56;;;32.99;16.81
43757;BME280;73222;41.866;12.462;2024-02-15T11:58:04;101762.31;;;35.86;14.94
43757;BME280;73222;41.866;12.462;2024-02-15T12:00:32;101766.81;;;34.78;15.24
43757;BME280;73222;41.866;12.462;2024-02-15T12:03:17;101767.50;;;35.35;15.42
43757;BME280;73222;41.866;12.462;2024-02-15T12:06:03;101759.13;;;34.73;15.92
43757;BME280;73222;41.866;12.462;2024-02-15T12:08:48;101760.53;;;35.33;15.15
43757;BME280;73222;41.866;12.462;2024-02-15T12:11:33;101756.59;;;34.49;15.22
43757;BME280;73222;41.866;12.462;2024-02-15T12:14:17;101754.13;;;34.80;15.33
43757;BME280;73222;41.866;12.462;2024-02-15T12:17:03;101745.06;;;35.46;15.13
43757;BME280;73222;41.866;12.462;2024-02-15T12:19:49;101738.88;;;35.13;14.89
43757;BME280;73222;41.866;12.462;2024-02-15T12:22:18;101738.13;;;35.65;14.95
43757;BME280;73222;41.866;12.462;2024-02-15T12:24:53;101741.75;;;35.75;15.42
43757;BME280;73222;41.866;12.462;2024-02-15T12:27:19;101737.72;;;36.73;14.34
43757;BME280;73222;41.866;12.462;2024-02-15T12:29:46;101732.47;;;37.01;14.35
43757;BME280;73222;41.866;12.462;2024-02-15T12:32:25;101729.91;;;36.19;14.58
43757;BME280;73222;41.866;12.462;2024-02-15T12:34:51;101719.56;;;35.51;13.73
43757;BME280;73222;41.866;12.462;2024-02-15T12:37:20;101722.38;;;35.60;14.34
43757;BME280;73222;41.866;12.462;2024-02-15T12:39:50;101712.34;;;33.50;14.57
43757;BME280;73222;41.866;12.462;2024-02-15T12:42:16;101707.81;;;35.09;14.56
43757;BME280;73222;41.866;12.462;2024-02-15T12:44:46;101718.56;;;35.63;13.91
43757;BME280;73222;41.866;12.462;2024-02-15T12:47:19;101700.13;;;36.30;13.96
43757;BME280;73222;41.866;12.462;2024-02-15T12:49:45;101698.91;;;36.03;13.76
43757;BME280;73222;41.866;12.462;2024-02-15T12:52:37;101697.38;;;35.80;15.18